sensor_id;sensor_type;location;lat;lon;timestamp;P1;durP1;ratioP1;P2;durP2;ratioP2
3503;SDS011;1766;53.490;10.174;2022-12-18T00:00:39;31.60;;;16.40;;
3503;SDS011;1766;53.490;10.174;2022-12-18T00:02:43;31.20;;;15.30;;
3503;SDS011;1766;53.490;10.174;2022-12-18T00:04:45;32.00;;;14.67;;
3503;SDS011;1766;53.490;10.174;2022-12-18T00:06:46;34.43;;;16.13;;
3503;SDS011;1766;53.490;10.174;2022-12-18T00:08:48;33.23;;;15.73;;
3503;SDS011;1766;53.490;10.174;2022-12-18T00:10:51;26.83;;;13.87;;
3503;SDS011;1766;53.490;10.174;2022-12-18T00:12:52;30.67;;;14.03;;
3503;SDS011;1766;53.490;10.174;2022-12-18T00:14:54;30.00;;;14.67;;
3503;SDS011;1766;53.490;10.174;2022-12-18T00:16:56;28.57;;;15.00;;
3503;SDS011;1766;53.490;10.174;2022-12-18T00:19:02;29.67;;;15.27;;
3503;SDS011;1766;53.490;10.174;2022-12-18T00:21:07;29.10;;;14.13;;
3503;SDS011;1766;53.490;10.174;2022-12-18T00:23:11;25.77;;;14.63;;
3503;SDS011;1766;53.490;10.174;2022-12-18T00:25:13;35.30;;;16.23;;
3503;SDS011;1766;53.490;10.174;2022-12-18T00:27:14;25.53;;;14.40;;
3503;SDS011;1766;53.490;10.174;2022-12-18T00:29:16;27.80;;;13.80;;
3503;SDS011;1766;53.490;10.174;2022-12-18T00:31:19;25.77;;;13.57;;
3503;SDS011;1766;53.490;10.174;2022-12-18T00:33:23;28.93;;;14.80;;
3503;SDS011;1766;53.490;10.174;2022-12-18T00:35:26;28.33;;;13.90;;
3503;SDS011;1766;53.490;10.174;2022-12-18T00:37:28;28.87;;;14.50;;
3503;SDS011;1766;53.490;10.174;2022-12-18T00:39:30;29.50;;;14.60;;
3503;SDS011;1766;53.490;10.174;2022-12-18T00:41:32;27.57;;;14.30;;
3503;SDS011;1766;53.490;10.174;2022-12-18T00:43:48;28.20;;;14.13;;
3503;SDS011;1766;53.490;10.174;2022-12-18T00:45:50;29.33;;;15.27;;
3503;SDS011;1766;53.490;10.174;2022-12-18T00:47:52;25.97;;;13.03;;
3503;SDS011;1766;53.490;10.174;2022-12-18T00:49:54;27.77;;;13.93;;
3503;SDS011;1766;53.490;10.174;2022-12-18T00:51:57;35.40;;;14.30;;
3503;SDS011;1766;53.490;10.174;2022-12-18T00:53:59;33.97;;;13.93;;
3503;SDS011;1766;53.490;10.174;2022-12-18T00:56:01;29.43;;;14.33;;
3503;SDS011;1766;53.490;10.174;2022-12-18T00:58:03;27.87;;;13.97;;
3503;SDS011;1766;53.490;10.174;2022-12-18T01:00:07;23.27;;;13.10;;
3503;SDS011;1766;53.490;10.174;2022-12-18T01:02:12;30.17;;;12.43;;
3503;SDS011;1766;53.490;10.174;2022-12-18T01:04:13;24.63;;;13.60;;
3503;SDS011;1766;53.490;10.174;2022-12-18T01:06:16;26.27;;;13.37;;
3503;SDS011;1766;53.490;10.174;2022-12-18T01:08:19;28.70;;;13.03;;
3503;SDS011;1766;53.490;10.174;2022-12-18T01:10:21;23.97;;;12.93;;
3503;SDS011;1766;53.490;10.174;2022-12-18T01:12:24;26.87;;;13.80;;
3503;SDS011;1766;53.490;10.174;2022-12-18T01:14:26;26.07;;;13.67;;
3503;SDS011;1766;53.490;10.174;2022-12-18T01:16:28;22.13;;;12.67;;
3503;SDS011;1766;53.490;10.174;2022-12-18T01:18:30;33.17;;;14.03;;
3503;SDS011;1766;53.490;10.174;2022-12-18T01:20:32;29.83;;;12.87;;
3503;SDS011;1766;53.490;10.174;2022-12-18T01:22:34;24.40;;;12.33;;
3503;SDS011;1766;53.490;10.174;2022-12-18T01:24:37;27.27;;;13.73;;
3503;SDS011;1766;53.490;10.174;2022-12-18T01:26:39;26.20;;;12.47;;
3503;SDS011;1766;53.490;10.174;2022-12-18T01:28:41;22.23;;;12.40;;
3503;SDS011;1766;53.490;10.174;2022-12-18T01:30:44;25.67;;;13.60;;
3503;SDS011;1766;53.490;10.174;2022-12-18T01:32:46;22.33;;;12.17;;
3503;SDS011;1766;53.490;10.174;2022-12-18T01:34:48;24.00;;;12.47;;
3503;SDS011;1766;53.490;10.174;2022-12-18T01:36:50;23.47;;;12.20;;
3503;SDS011;1766;53.490;10.174;2022-12-18T01:38:53;22.90;;;11.87;;
3503;SDS011;1766;53.490;10.174;2022-12-18T01:40:58;27.50;;;12.70;;
3503;SDS011;1766;53.490;10.174;2022-12-18T01:43:00;22.73;;;11.20;;
3503;SDS011;1766;53.490;10.174;2022-12-18T01:45:04;23.43;;;11.43;;
3503;SDS011;1766;53.490;10.174;2022-12-18T01:47:12;24.60;;;11.33;;
3503;SDS011;1766;53.490;10.174;2022-12-18T01:49:17;24.00;;;12.13;;
3503;SDS011;1766;53.490;10.174;2022-12-18T01:51:19;23.77;;;11.27;;
3503;SDS011;1766;53.490;10.174;2022-12-18T01:53:21;22.57;;;11.17;;
3503;SDS011;1766;53.490;10.174;2022-12-18T01:55:25;22.30;;;11.23;;
3503;SDS011;1766;53.490;10.174;2022-12-18T01:57:31;23.47;;;10.50;;
3503;SDS011;1766;53.490;10.174;2022-12-18T01:59:33;25.83;;;12.50;;
3503;SDS011;1766;53.490;10.174;2022-12-18T02:01:38;22.67;;;11.53;;
3503;SDS011;1766;53.490;10.174;2022-12-18T02:03:41;19.73;;;10.83;;
3503;SDS011;1766;53.490;10.174;2022-12-18T02:05:44;24.30;;;12.10;;
3503;SDS011;1766;53.490;10.174;2022-12-18T02:07:55;19.70;;;11.77;;
3503;SDS011;1766;53.490;10.174;2022-12-18T02:10:06;19.73;;;11.60;;
3503;SDS011;1766;53.490;10.174;2022-12-18T02:12:16;27.10;;;12.13;;
3503;SDS011;1766;53.490;10.174;2022-12-18T02:14:23;23.43;;;10.97;;
3503;SDS011;1766;53.490;10.174;2022-12-18T02:16:34;22.37;;;11.17;;
3503;SDS011;1766;53.490;10.174;2022-12-18T02:18:47;18.90;;;10.07;;
3503;SDS011;1766;53.490;10.174;2022-12-18T02:20:55;22.20;;;11.07;;
3503;SDS011;1766;53.490;10.174;2022-12-18T02:23:09;17.63;;;10.67;;
3503;SDS011;1766;53.490;10.174;2022-12-18T02:25:28;21.47;;;11.13;;
3503;SDS011;1766;53.490;10.174;2022-12-18T02:27:49;20.53;;;11.37;;
3503;SDS011;1766;53.490;10.174;2022-12-18T02:29:53;21.93;;;10.43;;
3503;SDS011;1766;53.490;10.174;2022-12-18T02:31:58;20.10;;;11.07;;
3503;SDS011;1766;53.490;10.174;2022-12-18T02:34:02;23.07;;;10.97;;
3503;SDS011;1766;53.490;10.174;2022-12-18T02:36:07;22.13;;;11.30;;
3503;SDS011;1766;53.490;10.174;2022-12-18T02:38:12;23.33;;;11.53;;
3503;SDS011;1766;53.490;10.174;2022-12-18T02:40:15;21.87;;;10.60;;
3503;SDS011;1766;53.490;10.174;2022-12-18T02:42:18;20.13;;;10.73;;
3503;SDS011;1766;53.490;10.174;2022-12-18T02:44:21;27.77;;;11.60;;
3503;SDS011;1766;53.490;10.174;2022-12-18T02:46:25;20.47;;;10.43;;
3503;SDS011;1766;53.490;10.174;2022-12-18T02:48:35;23.03;;;10.23;;
3503;SDS011;1766;53.490;10.174;2022-12-18T02:50:38;21.27;;;10.37;;
3503;SDS011;1766;53.490;10.174;2022-12-18T02:52:49;18.23;;;10.03;;
3503;SDS011;1766;53.490;10.174;2022-12-18T02:55:08;23.90;;;10.70;;
3503;SDS011;1766;53.490;10.174;2022-12-18T02:57:27;21.10;;;10.10;;
3503;SDS011;1766;53.490;10.174;2022-12-18T02:59:40;19.20;;;10.57;;
3503;SDS011;1766;53.490;10.174;2022-12-18T03:01:50;19.73;;;10.63;;
3503;SDS011;1766;53.490;10.174;2022-12-18T03:03:55;24.93;;;10.53;;
3503;SDS011;1766;53.490;10.174;2022-12-18T03:06:02;21.10;;;10.20;;
3503;SDS011;1766;53.490;10.174;2022-12-18T03:08:10;20.50;;;9.87;;
3503;SDS011;1766;53.490;10.174;2022-12-18T03:10:18;19.33;;;10.30;;
3503;SDS011;1766;53.490;10.174;2022-12-18T03:12:27;23.97;;;10.60;;
3503;SDS011;1766;53.490;10.174;2022-12-18T03:14:32;17.53;;;9.37;;
3503;SDS011;1766;53.490;10.174;2022-12-18T03:16:39;19.03;;;10.07;;
3503;SDS011;1766;53.490;10.174;2022-12-18T03:18:44;20.63;;;10.83;;
3503;SDS011;1766;53.490;10.174;2022-12-18T03:20:49;22.20;;;10.27;;
3503;SDS011;1766;53.490;10.174;2022-12-18T03:22:55;17.67;;;10.50;;
3503;SDS011;1766;53.490;10.174;2022-12-18T03:25:04;17.33;;;10.47;;
3503;SDS011;1766;53.490;10.174;2022-12-18T03:27:10;22.93;;;11.13;;
3503;SDS011;1766;53.490;10.174;2022-12-18T03:29:22;18.23;;;9.57;;
3503;SDS011;1766;53.490;10.174;2022-12-18T03:31:33;16.03;;;9.67;;
3503;SDS011;1766;53.490;10.174;2022-12-18T03:33:37;18.40;;;10.43;;
3503;SDS011;1766;53.490;10.174;2022-12-18T03:35:43;18.13;;;9.87;;
3503;SDS011;1766;53.490;10.174;2022-12-18T03:37:45;17.30;;;9.77;;
3503;SDS011;1766;53.490;10.174;2022-12-18T03:39:47;18.23;;;9.33;;
3503;SDS011;1766;53.490;10.174;2022-12-18T03:41:50;18.63;;;9.50;;
3503;SDS011;1766;53.490;10.174;2022-12-18T03:43:58;18.20;;;9.20;;
3503;SDS011;1766;53.490;10.174;2022-12-18T03:46:13;17.20;;;10.50;;
3503;SDS011;1766;53.490;10.174;2022-12-18T03:48:21;20.70;;;10.10;;
3503;SDS011;1766;53.490;10.174;2022-12-18T03:50:33;20.37;;;9.87;;
3503;SDS011;1766;53.490;10.174;2022-12-18T03:52:45;19.07;;;9.80;;
3503;SDS011;1766;53.490;10.174;2022-12-18T03:54:52;19.13;;;10.40;;
3503;SDS011;1766;53.490;10.174;2022-12-18T03:56:57;23.50;;;10.30;;
3503;SDS011;1766;53.490;10.174;2022-12-18T03:59:04;18.43;;;9.80;;
3503;SDS011;1766;53.490;10.174;2022-12-18T04:01:09;21.80;;;9.20;;
3503;SDS011;1766;53.490;10.174;2022-12-18T04:03:13;19.87;;;10.17;;
3503;SDS011;1766;53.490;10.174;2022-12-18T04:05:19;20.23;;;9.07;;
3503;SDS011;1766;53.490;10.174;2022-12-18T04:07:21;21.97;;;11.53;;
3503;SDS011;1766;53.490;10.174;2022-12-18T04:09:24;22.63;;;10.23;;
3503;SDS011;1766;53.490;10.174;2022-12-18T04:11:27;21.93;;;10.53;;
3503;SDS011;1766;53.490;10.174;2022-12-18T04:13:31;19.90;;;10.47;;
3503;SDS011;1766;53.490;10.174;2022-12-18T04:15:36;22.67;;;10.57;;
3503;SDS011;1766;53.490;10.174;2022-12-18T04:17:43;17.83;;;10.80;;
3503;SDS011;1766;53.490;10.174;2022-12-18T04:19:49;23.80;;;10.47;;
3503;SDS011;1766;53.490;10.174;2022-12-18T04:21:52;20.93;;;10.93;;
3503;SDS011;1766;53.490;10.174;2022-12-18T04:23:54;19.13;;;10.87;;
3503;SDS011;1766;53.490;10.174;2022-12-18T04:25:56;21.87;;;11.17;;
3503;SDS011;1766;53.490;10.174;2022-12-18T04:27:58;16.43;;;10.20;;
3503;SDS011;1766;53.490;10.174;2022-12-18T04:30:00;27.17;;;11.77;;
3503;SDS011;1766;53.490;10.174;2022-12-18T04:32:01;22.37;;;11.97;;
3503;SDS011;1766;53.490;10.174;2022-12-18T04:34:04;25.87;;;11.47;;
3503;SDS011;1766;53.490;10.174;2022-12-18T04:36:06;20.87;;;12.53;;
3503;SDS011;1766;53.490;10.174;2022-12-18T04:38:09;30.27;;;13.47;;
3503;SDS011;1766;53.490;10.174;2022-12-18T04:40:11;23.10;;;11.03;;
3503;SDS011;1766;53.490;10.174;2022-12-18T04:42:13;25.90;;;12.43;;
3503;SDS011;1766;53.490;10.174;2022-12-18T04:44:15;25.27;;;12.47;;
3503;SDS011;1766;53.490;10.174;2022-12-18T04:46:17;24.37;;;12.30;;
3503;SDS011;1766;53.490;10.174;2022-12-18T04:48:19;24.07;;;12.60;;
3503;SDS011;1766;53.490;10.174;2022-12-18T04:50:21;25.97;;;13.03;;
3503;SDS011;1766;53.490;10.174;2022-12-18T04:52:23;24.33;;;11.70;;
3503;SDS011;1766;53.490;10.174;2022-12-18T04:54:26;33.57;;;14.43;;
3503;SDS011;1766;53.490;10.174;2022-12-18T04:56:28;24.13;;;13.13;;
3503;SDS011;1766;53.490;10.174;2022-12-18T04:58:32;29.70;;;13.67;;
3503;SDS011;1766;53.490;10.174;2022-12-18T05:00:33;24.97;;;12.47;;
3503;SDS011;1766;53.490;10.174;2022-12-18T05:02:35;27.03;;;12.50;;
3503;SDS011;1766;53.490;10.174;2022-12-18T05:04:37;27.60;;;11.87;;
3503;SDS011;1766;53.490;10.174;2022-12-18T05:06:39;26.47;;;13.63;;
3503;SDS011;1766;53.490;10.174;2022-12-18T05:08:44;22.43;;;12.20;;
3503;SDS011;1766;53.490;10.174;2022-12-18T05:10:47;25.07;;;12.80;;
3503;SDS011;1766;53.490;10.174;2022-12-18T05:12:49;24.53;;;12.50;;
3503;SDS011;1766;53.490;10.174;2022-12-18T05:15:05;29.07;;;12.77;;
3503;SDS011;1766;53.490;10.174;2022-12-18T05:17:08;27.43;;;12.27;;
3503;SDS011;1766;53.490;10.174;2022-12-18T05:19:10;19.97;;;12.27;;
3503;SDS011;1766;53.490;10.174;2022-12-18T05:21:12;21.57;;;12.83;;
3503;SDS011;1766;53.490;10.174;2022-12-18T05:23:13;25.03;;;12.77;;
3503;SDS011;1766;53.490;10.174;2022-12-18T05:25:15;23.40;;;12.37;;
3503;SDS011;1766;53.490;10.174;2022-12-18T05:27:18;24.80;;;12.10;;
3503;SDS011;1766;53.490;10.174;2022-12-18T05:29:20;26.63;;;12.77;;
3503;SDS011;1766;53.490;10.174;2022-12-18T05:31:25;23.60;;;11.83;;
3503;SDS011;1766;53.490;10.174;2022-12-18T05:33:29;28.87;;;13.27;;
3503;SDS011;1766;53.490;10.174;2022-12-18T05:35:32;25.53;;;12.97;;
3503;SDS011;1766;53.490;10.174;2022-12-18T05:37:34;30.63;;;13.87;;
3503;SDS011;1766;53.490;10.174;2022-12-18T05:39:36;35.63;;;15.70;;
3503;SDS011;1766;53.490;10.174;2022-12-18T05:41:38;25.23;;;13.73;;
3503;SDS011;1766;53.490;10.174;2022-12-18T05:43:41;33.23;;;14.77;;
3503;SDS011;1766;53.490;10.174;2022-12-18T05:45:44;30.13;;;14.87;;
3503;SDS011;1766;53.490;10.174;2022-12-18T05:47:46;26.73;;;14.43;;
3503;SDS011;1766;53.490;10.174;2022-12-18T05:49:47;29.77;;;13.17;;
3503;SDS011;1766;53.490;10.174;2022-12-18T05:51:49;28.40;;;14.13;;
3503;SDS011;1766;53.490;10.174;2022-12-18T05:53:51;26.47;;;13.93;;
3503;SDS011;1766;53.490;10.174;2022-12-18T05:55:53;28.30;;;14.63;;
3503;SDS011;1766;53.490;10.174;2022-12-18T05:57:55;29.67;;;13.47;;
3503;SDS011;1766;53.490;10.174;2022-12-18T05:59:58;33.10;;;15.03;;
3503;SDS011;1766;53.490;10.174;2022-12-18T06:01:59;29.17;;;13.50;;
3503;SDS011;1766;53.490;10.174;2022-12-18T06:04:01;32.97;;;14.13;;
3503;SDS011;1766;53.490;10.174;2022-12-18T06:06:03;27.30;;;13.43;;
3503;SDS011;1766;53.490;10.174;2022-12-18T06:08:14;27.90;;;13.20;;
3503;SDS011;1766;53.490;10.174;2022-12-18T06:10:15;31.20;;;13.20;;
3503;SDS011;1766;53.490;10.174;2022-12-18T06:12:17;28.00;;;14.67;;
3503;SDS011;1766;53.490;10.174;2022-12-18T06:14:19;31.30;;;15.00;;
3503;SDS011;1766;53.490;10.174;2022-12-18T06:16:22;30.03;;;14.63;;
3503;SDS011;1766;53.490;10.174;2022-12-18T06:18:24;30.90;;;13.40;;
3503;SDS011;1766;53.490;10.174;2022-12-18T06:20:25;29.67;;;15.67;;
3503;SDS011;1766;53.490;10.174;2022-12-18T06:22:27;31.13;;;14.47;;
3503;SDS011;1766;53.490;10.174;2022-12-18T06:24:31;27.40;;;14.47;;
3503;SDS011;1766;53.490;10.174;2022-12-18T06:26:33;28.63;;;14.83;;
3503;SDS011;1766;53.490;10.174;2022-12-18T06:28:35;32.77;;;15.20;;
3503;SDS011;1766;53.490;10.174;2022-12-18T06:30:37;31.90;;;16.53;;
3503;SDS011;1766;53.490;10.174;2022-12-18T06:32:40;35.60;;;16.33;;
3503;SDS011;1766;53.490;10.174;2022-12-18T06:34:41;32.10;;;16.10;;
3503;SDS011;1766;53.490;10.174;2022-12-18T06:36:43;30.00;;;15.57;;
3503;SDS011;1766;53.490;10.174;2022-12-18T06:38:45;33.47;;;13.80;;
3503;SDS011;1766;53.490;10.174;2022-12-18T06:40:47;32.03;;;13.67;;
3503;SDS011;1766;53.490;10.174;2022-12-18T06:42:48;32.77;;;16.93;;
3503;SDS011;1766;53.490;10.174;2022-12-18T06:44:50;31.80;;;16.33;;
3503;SDS011;1766;53.490;10.174;2022-12-18T06:46:52;33.73;;;16.17;;
3503;SDS011;1766;53.490;10.174;2022-12-18T06:48:55;34.47;;;16.37;;
3503;SDS011;1766;53.490;10.174;2022-12-18T06:50:57;29.83;;;15.00;;
3503;SDS011;1766;53.490;10.174;2022-12-18T06:52:59;31.13;;;14.87;;
3503;SDS011;1766;53.490;10.174;2022-12-18T06:55:00;34.73;;;16.90;;
3503;SDS011;1766;53.490;10.174;2022-12-18T06:57:02;31.13;;;15.07;;
3503;SDS011;1766;53.490;10.174;2022-12-18T06:59:10;31.53;;;16.60;;
3503;SDS011;1766;53.490;10.174;2022-12-18T07:01:13;29.00;;;14.73;;
3503;SDS011;1766;53.490;10.174;2022-12-18T07:03:15;28.93;;;14.10;;
3503;SDS011;1766;53.490;10.174;2022-12-18T07:05:18;26.37;;;13.53;;
3503;SDS011;1766;53.490;10.174;2022-12-18T07:07:20;28.17;;;13.87;;
3503;SDS011;1766;53.490;10.174;2022-12-18T07:09:22;36.33;;;15.80;;
3503;SDS011;1766;53.490;10.174;2022-12-18T07:11:25;59.83;;;22.63;;
3503;SDS011;1766;53.490;10.174;2022-12-18T07:13:27;33.97;;;15.50;;
3503;SDS011;1766;53.490;10.174;2022-12-18T07:15:29;36.03;;;13.33;;
3503;SDS011;1766;53.490;10.174;2022-12-18T07:17:31;31.53;;;14.33;;
3503;SDS011;1766;53.490;10.174;2022-12-18T07:19:33;23.17;;;12.73;;
3503;SDS011;1766;53.490;10.174;2022-12-18T07:21:37;28.93;;;13.10;;
3503;SDS011;1766;53.490;10.174;2022-12-18T07:23:38;29.37;;;14.93;;
3503;SDS011;1766;53.490;10.174;2022-12-18T07:25:41;34.13;;;15.53;;
3503;SDS011;1766;53.490;10.174;2022-12-18T07:27:42;30.40;;;14.40;;
3503;SDS011;1766;53.490;10.174;2022-12-18T07:29:45;27.90;;;13.50;;
3503;SDS011;1766;53.490;10.174;2022-12-18T07:31:46;29.67;;;14.40;;
3503;SDS011;1766;53.490;10.174;2022-12-18T07:33:49;33.37;;;14.83;;
3503;SDS011;1766;53.490;10.174;2022-12-18T07:35:52;23.97;;;12.37;;
3503;SDS011;1766;53.490;10.174;2022-12-18T07:37:55;33.10;;;15.70;;
3503;SDS011;1766;53.490;10.174;2022-12-18T07:39:56;26.83;;;14.30;;
3503;SDS011;1766;53.490;10.174;2022-12-18T07:41:58;28.20;;;14.27;;
3503;SDS011;1766;53.490;10.174;2022-12-18T07:44:14;29.20;;;13.93;;
3503;SDS011;1766;53.490;10.174;2022-12-18T07:46:16;24.67;;;14.00;;
3503;SDS011;1766;53.490;10.174;2022-12-18T07:48:33;31.63;;;14.67;;
3503;SDS011;1766;53.490;10.174;2022-12-18T07:50:36;27.20;;;14.23;;
3503;SDS011;1766;53.490;10.174;2022-12-18T07:52:38;34.07;;;14.83;;
3503;SDS011;1766;53.490;10.174;2022-12-18T07:54:41;31.13;;;14.77;;
3503;SDS011;1766;53.490;10.174;2022-12-18T07:56:43;30.73;;;14.17;;
3503;SDS011;1766;53.490;10.174;2022-12-18T07:58:47;28.43;;;14.90;;
3503;SDS011;1766;53.490;10.174;2022-12-18T08:00:49;32.93;;;14.50;;
3503;SDS011;1766;53.490;10.174;2022-12-18T08:02:57;36.97;;;13.83;;
3503;SDS011;1766;53.490;10.174;2022-12-18T08:04:58;30.90;;;15.00;;
3503;SDS011;1766;53.490;10.174;2022-12-18T08:07:00;29.70;;;13.77;;
3503;SDS011;1766;53.490;10.174;2022-12-18T08:09:02;28.77;;;14.83;;
3503;SDS011;1766;53.490;10.174;2022-12-18T08:11:05;30.97;;;15.10;;
3503;SDS011;1766;53.490;10.174;2022-12-18T08:13:07;30.87;;;15.83;;
3503;SDS011;1766;53.490;10.174;2022-12-18T08:15:09;31.07;;;16.07;;
3503;SDS011;1766;53.490;10.174;2022-12-18T08:17:17;33.50;;;15.90;;
3503;SDS011;1766;53.490;10.174;2022-12-18T08:19:23;31.40;;;15.33;;
3503;SDS011;1766;53.490;10.174;2022-12-18T08:21:26;31.97;;;14.77;;
3503;SDS011;1766;53.490;10.174;2022-12-18T08:23:30;32.03;;;12.60;;
3503;SDS011;1766;53.490;10.174;2022-12-18T08:25:39;22.97;;;12.37;;
3503;SDS011;1766;53.490;10.174;2022-12-18T08:27:43;28.97;;;14.77;;
3503;SDS011;1766;53.490;10.174;2022-12-18T08:29:44;29.63;;;13.87;;
3503;SDS011;1766;53.490;10.174;2022-12-18T08:31:46;31.67;;;14.03;;
3503;SDS011;1766;53.490;10.174;2022-12-18T08:33:52;29.27;;;13.50;;
3503;SDS011;1766;53.490;10.174;2022-12-18T08:35:54;29.87;;;14.70;;
3503;SDS011;1766;53.490;10.174;2022-12-18T08:37:56;26.13;;;13.83;;
3503;SDS011;1766;53.490;10.174;2022-12-18T08:39:58;32.60;;;14.33;;
3503;SDS011;1766;53.490;10.174;2022-12-18T08:42:00;30.63;;;15.70;;
3503;SDS011;1766;53.490;10.174;2022-12-18T08:44:17;25.93;;;13.27;;
3503;SDS011;1766;53.490;10.174;2022-12-18T08:46:34;27.60;;;12.93;;
3503;SDS011;1766;53.490;10.174;2022-12-18T08:48:37;31.33;;;15.40;;
3503;SDS011;1766;53.490;10.174;2022-12-18T08:50:39;32.67;;;14.67;;
3503;SDS011;1766;53.490;10.174;2022-12-18T08:52:41;30.03;;;14.23;;
3503;SDS011;1766;53.490;10.174;2022-12-18T08:54:43;29.60;;;12.27;;
3503;SDS011;1766;53.490;10.174;2022-12-18T08:56:47;30.27;;;13.37;;
3503;SDS011;1766;53.490;10.174;2022-12-18T08:58:50;28.50;;;14.33;;
3503;SDS011;1766;53.490;10.174;2022-12-18T09:00:57;30.77;;;14.33;;
3503;SDS011;1766;53.490;10.174;2022-12-18T09:03:01;32.23;;;14.67;;
3503;SDS011;1766;53.490;10.174;2022-12-18T09:05:03;28.10;;;13.63;;
3503;SDS011;1766;53.490;10.174;2022-12-18T09:07:06;31.10;;;15.80;;
3503;SDS011;1766;53.490;10.174;2022-12-18T09:09:09;24.70;;;13.23;;
3503;SDS011;1766;53.490;10.174;2022-12-18T09:11:12;30.87;;;15.70;;
3503;SDS011;1766;53.490;10.174;2022-12-18T09:13:16;25.40;;;13.43;;
3503;SDS011;1766;53.490;10.174;2022-12-18T09:15:19;33.37;;;14.20;;
3503;SDS011;1766;53.490;10.174;2022-12-18T09:17:22;30.10;;;14.80;;
3503;SDS011;1766;53.490;10.174;2022-12-18T09:19:24;29.10;;;13.93;;
3503;SDS011;1766;53.490;10.174;2022-12-18T09:21:26;28.93;;;13.93;;
3503;SDS011;1766;53.490;10.174;2022-12-18T09:23:30;30.07;;;14.73;;
3503;SDS011;1766;53.490;10.174;2022-12-18T09:25:32;32.63;;;15.03;;
3503;SDS011;1766;53.490;10.174;2022-12-18T09:27:35;29.53;;;14.80;;
3503;SDS011;1766;53.490;10.174;2022-12-18T09:29:37;34.30;;;17.50;;
3503;SDS011;1766;53.490;10.174;2022-12-18T09:31:39;33.63;;;15.73;;
3503;SDS011;1766;53.490;10.174;2022-12-18T09:33:42;31.10;;;15.50;;
3503;SDS011;1766;53.490;10.174;2022-12-18T09:35:45;36.80;;;16.07;;
3503;SDS011;1766;53.490;10.174;2022-12-18T09:37:47;33.87;;;15.37;;
3503;SDS011;1766;53.490;10.174;2022-12-18T09:39:49;31.30;;;14.83;;
3503;SDS011;1766;53.490;10.174;2022-12-18T09:41:51;32.77;;;15.63;;
3503;SDS011;1766;53.490;10.174;2022-12-18T09:43:55;32.27;;;15.13;;
3503;SDS011;1766;53.490;10.174;2022-12-18T09:46:03;33.93;;;16.40;;
3503;SDS011;1766;53.490;10.174;2022-12-18T09:48:23;33.43;;;15.20;;
3503;SDS011;1766;53.490;10.174;2022-12-18T09:50:31;27.97;;;15.00;;
3503;SDS011;1766;53.490;10.174;2022-12-18T09:52:37;30.17;;;14.97;;
3503;SDS011;1766;53.490;10.174;2022-12-18T09:54:44;31.33;;;18.27;;
3503;SDS011;1766;53.490;10.174;2022-12-18T09:56:51;27.57;;;13.93;;
3503;SDS011;1766;53.490;10.174;2022-12-18T09:58:53;30.37;;;13.87;;
3503;SDS011;1766;53.490;10.174;2022-12-18T10:00:59;31.70;;;16.60;;
3503;SDS011;1766;53.490;10.174;2022-12-18T10:03:01;31.87;;;16.83;;
3503;SDS011;1766;53.490;10.174;2022-12-18T10:05:12;34.67;;;15.60;;
3503;SDS011;1766;53.490;10.174;2022-12-18T10:07:20;31.30;;;16.20;;
3503;SDS011;1766;53.490;10.174;2022-12-18T10:09:30;34.03;;;15.30;;
3503;SDS011;1766;53.490;10.174;2022-12-18T10:11:40;27.27;;;14.53;;
3503;SDS011;1766;53.490;10.174;2022-12-18T10:13:50;32.43;;;15.23;;
3503;SDS011;1766;53.490;10.174;2022-12-18T10:16:00;30.77;;;15.47;;
3503;SDS011;1766;53.490;10.174;2022-12-18T10:18:23;30.83;;;13.60;;
3503;SDS011;1766;53.490;10.174;2022-12-18T10:20:40;26.17;;;13.33;;
3503;SDS011;1766;53.490;10.174;2022-12-18T10:22:50;30.60;;;14.77;;
3503;SDS011;1766;53.490;10.174;2022-12-18T10:24:59;29.63;;;15.23;;
3503;SDS011;1766;53.490;10.174;2022-12-18T10:27:09;30.93;;;14.67;;
3503;SDS011;1766;53.490;10.174;2022-12-18T10:29:16;26.47;;;13.70;;
3503;SDS011;1766;53.490;10.174;2022-12-18T10:31:19;30.70;;;14.63;;
3503;SDS011;1766;53.490;10.174;2022-12-18T10:33:40;31.10;;;13.90;;
3503;SDS011;1766;53.490;10.174;2022-12-18T10:35:41;28.33;;;14.30;;
3503;SDS011;1766;53.490;10.174;2022-12-18T10:40:08;29.00;;;13.47;;
3503;SDS011;1766;53.490;10.174;2022-12-18T10:42:16;26.00;;;13.40;;
3503;SDS011;1766;53.490;10.174;2022-12-18T10:44:21;26.97;;;12.73;;
3503;SDS011;1766;53.490;10.174;2022-12-18T10:46:26;23.27;;;12.07;;
3503;SDS011;1766;53.490;10.174;2022-12-18T10:48:28;34.23;;;13.60;;
3503;SDS011;1766;53.490;10.174;2022-12-18T10:50:32;30.43;;;13.60;;
3503;SDS011;1766;53.490;10.174;2022-12-18T10:52:36;27.90;;;12.97;;
3503;SDS011;1766;53.490;10.174;2022-12-18T10:54:39;26.70;;;13.23;;
3503;SDS011;1766;53.490;10.174;2022-12-18T10:56:41;22.27;;;13.33;;
3503;SDS011;1766;53.490;10.174;2022-12-18T10:58:44;24.17;;;12.60;;
3503;SDS011;1766;53.490;10.174;2022-12-18T11:03:31;24.23;;;13.33;;
3503;SDS011;1766;53.490;10.174;2022-12-18T11:05:38;28.87;;;13.53;;
3503;SDS011;1766;53.490;10.174;2022-12-18T11:07:47;23.43;;;11.87;;
3503;SDS011;1766;53.490;10.174;2022-12-18T11:10:00;23.97;;;13.03;;
3503;SDS011;1766;53.490;10.174;2022-12-18T11:12:03;28.07;;;13.73;;
3503;SDS011;1766;53.490;10.174;2022-12-18T11:14:18;27.07;;;13.07;;
3503;SDS011;1766;53.490;10.174;2022-12-18T11:16:26;24.87;;;12.40;;
3503;SDS011;1766;53.490;10.174;2022-12-18T11:18:33;31.10;;;14.43;;
3503;SDS011;1766;53.490;10.174;2022-12-18T11:20:36;28.87;;;13.97;;
3503;SDS011;1766;53.490;10.174;2022-12-18T11:22:39;24.33;;;12.27;;
3503;SDS011;1766;53.490;10.174;2022-12-18T11:24:41;27.90;;;13.97;;
3503;SDS011;1766;53.490;10.174;2022-12-18T11:26:44;27.03;;;13.87;;
3503;SDS011;1766;53.490;10.174;2022-12-18T11:28:47;27.63;;;14.37;;
3503;SDS011;1766;53.490;10.174;2022-12-18T11:30:54;28.63;;;12.13;;
3503;SDS011;1766;53.490;10.174;2022-12-18T11:33:20;24.83;;;13.00;;
3503;SDS011;1766;53.490;10.174;2022-12-18T11:35:26;23.60;;;13.00;;
3503;SDS011;1766;53.490;10.174;2022-12-18T11:37:38;25.33;;;12.00;;
3503;SDS011;1766;53.490;10.174;2022-12-18T11:39:44;23.03;;;11.30;;
3503;SDS011;1766;53.490;10.174;2022-12-18T11:41:53;23.90;;;13.20;;
3503;SDS011;1766;53.490;10.174;2022-12-18T11:44:14;20.80;;;11.90;;
3503;SDS011;1766;53.490;10.174;2022-12-18T11:46:24;25.10;;;12.97;;
3503;SDS011;1766;53.490;10.174;2022-12-18T11:48:32;22.13;;;11.57;;
3503;SDS011;1766;53.490;10.174;2022-12-18T11:50:41;22.17;;;11.87;;
3503;SDS011;1766;53.490;10.174;2022-12-18T11:52:50;22.70;;;11.80;;
3503;SDS011;1766;53.490;10.174;2022-12-18T11:54:53;26.17;;;13.40;;
3503;SDS011;1766;53.490;10.174;2022-12-18T11:57:03;20.80;;;11.47;;
3503;SDS011;1766;53.490;10.174;2022-12-18T11:59:17;21.10;;;11.20;;
3503;SDS011;1766;53.490;10.174;2022-12-18T12:01:35;19.13;;;10.43;;
3503;SDS011;1766;53.490;10.174;2022-12-18T12:03:51;21.27;;;10.33;;
3503;SDS011;1766;53.490;10.174;2022-12-18T12:06:10;21.53;;;10.37;;
3503;SDS011;1766;53.490;10.174;2022-12-18T12:08:22;20.50;;;10.57;;
3503;SDS011;1766;53.490;10.174;2022-12-18T12:10:40;20.67;;;10.37;;
3503;SDS011;1766;53.490;10.174;2022-12-18T12:12:57;19.23;;;10.43;;
3503;SDS011;1766;53.490;10.174;2022-12-18T12:15:18;21.33;;;11.03;;
3503;SDS011;1766;53.490;10.174;2022-12-18T12:17:32;22.70;;;10.73;;
3503;SDS011;1766;53.490;10.174;2022-12-18T12:19:44;18.93;;;10.20;;
3503;SDS011;1766;53.490;10.174;2022-12-18T12:21:55;20.47;;;11.80;;
3503;SDS011;1766;53.490;10.174;2022-12-18T12:24:10;23.23;;;12.03;;
3503;SDS011;1766;53.490;10.174;2022-12-18T12:26:29;23.63;;;11.43;;
3503;SDS011;1766;53.490;10.174;2022-12-18T12:28:42;21.17;;;10.63;;